createdAt,value
2022-12-31T00:00:03.116Z,1.80
2022-12-31T00:02:32.741Z,1.50
2022-12-31T00:05:00.321Z,2.00
2022-12-31T00:07:27.960Z,2.25
2022-12-31T00:09:55.383Z,1.90
2022-12-31T00:12:22.895Z,2.00
2022-12-31T00:14:50.395Z,2.22
2022-12-31T00:17:17.788Z,2.53
2022-12-31T00:19:45.283Z,2.43
2022-12-31T00:22:12.862Z,2.15
2022-12-31T00:24:40.322Z,2.50
2022-12-31T00:27:07.750Z,2.22
2022-12-31T00:29:35.152Z,2.50
2022-12-31T00:32:02.559Z,2.40
2022-12-31T00:34:30.149Z,2.33
2022-12-31T00:36:57.758Z,2.15
2022-12-31T00:39:25.232Z,2.63
2022-12-31T00:41:52.843Z,2.60
2022-12-31T00:44:20.483Z,2.40
2022-12-31T00:46:48.388Z,2.47
2022-12-31T00:49:16.440Z,2.13
2022-12-31T00:51:43.881Z,2.38
2022-12-31T00:54:11.299Z,2.30
2022-12-31T00:56:39.163Z,2.33
2022-12-31T00:59:06.554Z,2.42
2022-12-31T01:01:36.894Z,2.20
2022-12-31T01:04:07.911Z,2.40
2022-12-31T01:06:35.661Z,2.25
2022-12-31T01:09:04.816Z,2.50
2022-12-31T01:11:32.459Z,2.38
2022-12-31T01:14:07.890Z,2.47
2022-12-31T01:16:38.947Z,2.30
2022-12-31T01:19:09.269Z,2.45
2022-12-31T01:21:38.703Z,3.00
2022-12-31T01:24:07.595Z,2.83
2022-12-31T01:26:35.823Z,2.70
2022-12-31T01:31:31.209Z,2.25
2022-12-31T01:33:58.735Z,2.85
2022-12-31T01:36:29.195Z,2.70
2022-12-31T01:38:59.080Z,2.75
2022-12-31T01:41:29.792Z,2.42
2022-12-31T01:44:03.809Z,2.90
2022-12-31T01:46:46.285Z,2.83
2022-12-31T01:49:21.403Z,2.88
2022-12-31T01:51:53.553Z,2.60
2022-12-31T01:54:23.030Z,2.33
2022-12-31T01:56:53.600Z,2.60
2022-12-31T01:59:22.395Z,2.60
2022-12-31T02:01:53.781Z,3.17
2022-12-31T02:04:24.726Z,2.42
2022-12-31T02:06:57.358Z,3.00
2022-12-31T02:09:24.843Z,2.60
2022-12-31T02:11:52.353Z,2.80
2022-12-31T02:14:56.850Z,2.33
2022-12-31T02:17:34.296Z,2.30
2022-12-31T02:20:24.220Z,2.60
2022-12-31T02:23:19.725Z,2.10
2022-12-31T02:26:11.938Z,1.90
2022-12-31T02:28:56.974Z,2.13
2022-12-31T02:31:39.376Z,2.17
2022-12-31T02:34:13.954Z,1.92
2022-12-31T02:36:47.389Z,2.00
2022-12-31T02:39:15.788Z,1.83
2022-12-31T02:41:52.288Z,2.00
2022-12-31T02:44:32.936Z,1.67
2022-12-31T02:47:09.049Z,1.77
2022-12-31T02:49:53.162Z,1.85
2022-12-31T02:52:54.426Z,1.65
2022-12-31T02:55:39.927Z,1.95
2022-12-31T02:58:45.694Z,2.00
2022-12-31T03:01:35.298Z,1.45
2022-12-31T03:04:24.076Z,1.67
2022-12-31T03:06:52.915Z,1.65
2022-12-31T03:09:20.514Z,1.42
2022-12-31T03:12:06.848Z,1.60
2022-12-31T03:14:34.302Z,1.17
2022-12-31T03:17:01.737Z,1.02
2022-12-31T03:19:47.799Z,1.30
2022-12-31T03:22:27.653Z,0.73
2022-12-31T03:25:33.290Z,0.90
2022-12-31T03:28:03.283Z,0.82
2022-12-31T03:30:32.422Z,0.68
2022-12-31T03:33:00.135Z,0.60
2022-12-31T03:35:29.522Z,0.50
2022-12-31T03:37:57.822Z,0.52
2022-12-31T03:40:27.265Z,0.40
2022-12-31T03:42:55.102Z,0.32
2022-12-31T03:45:22.673Z,0.30
2022-12-31T03:47:50.430Z,0.10
2022-12-31T03:50:19.155Z,0.13
2022-12-31T03:52:46.853Z,0.20
2022-12-31T03:55:14.757Z,0.15
2022-12-31T03:57:42.322Z,0.20
2022-12-31T04:00:13.797Z,0.15
2022-12-31T04:02:41.922Z,0.20
2022-12-31T04:05:10.740Z,0.20
2022-12-31T04:07:39.048Z,0.10
2022-12-31T04:12:35.182Z,0.20
2022-12-31T04:15:02.877Z,0.20
2022-12-31T04:17:30.701Z,0.20
2022-12-31T04:19:58.136Z,0.20
2022-12-31T04:22:25.791Z,0.30
2022-12-31T04:24:53.186Z,0.25
2022-12-31T04:27:20.590Z,0.20
2022-12-31T04:29:48.000Z,0.50
2022-12-31T04:32:15.720Z,0.50
2022-12-31T04:34:43.123Z,0.50
2022-12-31T04:37:10.649Z,0.43
2022-12-31T04:39:38.039Z,0.50
2022-12-31T04:42:05.446Z,0.40
2022-12-31T04:44:34.898Z,0.40
2022-12-31T04:47:02.366Z,0.50
2022-12-31T04:49:29.808Z,0.70
2022-12-31T04:51:57.297Z,0.77
2022-12-31T04:54:24.775Z,0.90
2022-12-31T04:56:52.380Z,1.20
2022-12-31T04:59:20.055Z,1.83
2022-12-31T05:01:47.664Z,2.25
2022-12-31T05:04:15.192Z,2.30
2022-12-31T05:06:42.882Z,2.47
2022-12-31T05:09:10.363Z,2.50
2022-12-31T05:11:38.119Z,2.78
2022-12-31T05:14:05.728Z,2.58
2022-12-31T05:16:33.300Z,2.50
2022-12-31T05:19:00.797Z,2.90
2022-12-31T05:21:28.253Z,2.90
2022-12-31T05:23:55.701Z,3.20
2022-12-31T05:26:23.095Z,2.28
2022-12-31T05:28:50.496Z,2.67
2022-12-31T05:31:18.139Z,2.38
2022-12-31T05:33:45.536Z,2.42
2022-12-31T05:36:13.155Z,2.08
2022-12-31T05:38:40.560Z,2.17
2022-12-31T05:41:10.902Z,2.33
2022-12-31T05:43:38.329Z,2.20
2022-12-31T05:46:06.115Z,2.38
2022-12-31T05:48:33.626Z,1.70
2022-12-31T05:51:01.055Z,1.77
2022-12-31T05:53:28.543Z,2.10
2022-12-31T05:55:55.961Z,1.88
2022-12-31T05:58:23.418Z,2.13
2022-12-31T06:00:52.273Z,2.63
2022-12-31T06:03:19.739Z,2.40
2022-12-31T06:05:47.212Z,2.70
2022-12-31T06:08:14.682Z,2.92
2022-12-31T06:10:42.489Z,2.83
2022-12-31T06:13:09.968Z,2.70
2022-12-31T06:15:39.679Z,2.83
2022-12-31T06:18:07.556Z,3.13
2022-12-31T06:20:38.452Z,3.47
2022-12-31T06:23:06.029Z,3.30
2022-12-31T06:25:35.378Z,3.60
2022-12-31T06:28:04.169Z,3.90
2022-12-31T06:30:31.727Z,4.10
2022-12-31T06:32:59.147Z,4.03
2022-12-31T06:35:26.562Z,4.40
2022-12-31T06:37:54.003Z,3.70
2022-12-31T06:40:21.426Z,4.07
2022-12-31T06:42:49.877Z,3.72
2022-12-31T06:45:20.033Z,3.70
2022-12-31T06:47:47.493Z,3.03
2022-12-31T06:50:16.956Z,3.47
2022-12-31T06:52:44.381Z,4.03
2022-12-31T06:55:12.497Z,3.92
2022-12-31T06:57:40.195Z,3.42
2022-12-31T07:00:08.190Z,4.00
2022-12-31T07:03:22.048Z,3.78
2022-12-31T07:06:20.926Z,3.33
2022-12-31T07:09:06.958Z,3.15
2022-12-31T07:12:04.036Z,3.28
2022-12-31T07:14:43.472Z,2.97
2022-12-31T07:17:46.515Z,2.95
2022-12-31T07:20:17.004Z,2.97
2022-12-31T07:22:45.951Z,2.85
2022-12-31T07:25:18.083Z,2.78
2022-12-31T07:28:10.311Z,3.20
2022-12-31T07:30:54.140Z,2.70
2022-12-31T07:33:37.516Z,2.78
2022-12-31T07:36:37.783Z,3.20
2022-12-31T07:39:22.064Z,2.95
2022-12-31T07:41:52.673Z,3.30
2022-12-31T07:44:51.620Z,3.30
2022-12-31T07:47:24.937Z,3.65
2022-12-31T07:49:53.497Z,4.22
2022-12-31T07:52:21.871Z,3.53
2022-12-31T07:54:49.390Z,3.85
2022-12-31T07:57:19.264Z,4.07
2022-12-31T07:59:58.564Z,4.55
2022-12-31T08:02:34.915Z,3.88
2022-12-31T08:05:23.942Z,3.20
2022-12-31T08:08:18.373Z,3.55
2022-12-31T08:10:59.224Z,3.50
2022-12-31T08:13:27.857Z,2.75
2022-12-31T08:18:22.907Z,3.67
2022-12-31T08:21:04.725Z,4.20
2022-12-31T08:23:52.157Z,4.10
2022-12-31T08:26:36.454Z,3.65
2022-12-31T08:29:23.739Z,4.13
2022-12-31T08:31:51.137Z,4.38
2022-12-31T08:34:38.927Z,4.53
2022-12-31T08:37:17.023Z,4.47
2022-12-31T08:40:10.330Z,4.35
2022-12-31T08:43:19.634Z,4.10
2022-12-31T08:45:49.799Z,5.07
2022-12-31T08:48:17.382Z,4.05
2022-12-31T08:50:44.964Z,3.97
2022-12-31T08:53:12.583Z,4.10
2022-12-31T08:55:43.012Z,3.97
2022-12-31T08:58:39.280Z,3.70
2022-12-31T09:01:08.439Z,4.38
2022-12-31T09:03:51.606Z,4.35
2022-12-31T09:06:23.035Z,4.55
2022-12-31T09:09:10.555Z,4.63
2022-12-31T09:11:59.617Z,4.40
2022-12-31T09:14:30.037Z,4.45
2022-12-31T09:17:08.648Z,4.38
2022-12-31T09:19:36.168Z,5.22
2022-12-31T09:22:03.916Z,4.53
2022-12-31T09:24:31.829Z,4.78
2022-12-31T09:27:33.738Z,5.07
2022-12-31T09:30:11.780Z,4.45
2022-12-31T09:35:46.625Z,4.50
2022-12-31T09:38:54.915Z,4.60
2022-12-31T09:42:00.654Z,4.47
2022-12-31T09:45:05.686Z,5.03
2022-12-31T09:47:53.885Z,4.18
2022-12-31T09:50:27.333Z,5.00
2022-12-31T09:53:16.943Z,4.28
2022-12-31T09:55:57.035Z,4.45
2022-12-31T09:58:36.471Z,4.30
2022-12-31T10:01:27.908Z,4.30
2022-12-31T10:04:17.312Z,3.60
2022-12-31T10:06:53.974Z,3.47
2022-12-31T10:10:00.823Z,3.10
2022-12-31T10:12:54.946Z,2.90
2022-12-31T10:15:38.625Z,3.22
2022-12-31T10:18:47.723Z,2.47
2022-12-31T10:21:57.885Z,2.13
2022-12-31T10:25:00.218Z,2.08
2022-12-31T10:27:47.890Z,2.20
2022-12-31T10:30:17.327Z,1.70
2022-12-31T10:32:54.796Z,1.92
2022-12-31T10:35:50.032Z,1.80
2022-12-31T10:38:30.319Z,2.08
2022-12-31T10:41:28.809Z,1.63
2022-12-31T10:44:14.542Z,1.30
2022-12-31T10:47:07.043Z,1.25
2022-12-31T10:49:58.329Z,1.40
2022-12-31T10:53:10.890Z,1.45
2022-12-31T10:55:41.308Z,1.17
2022-12-31T10:58:26.503Z,1.05
2022-12-31T11:01:16.396Z,1.08
2022-12-31T11:04:08.651Z,1.38
2022-12-31T11:07:00.262Z,1.15
2022-12-31T11:09:34.538Z,0.80
2022-12-31T11:12:31.011Z,0.80
2022-12-31T11:15:20.915Z,0.80
2022-12-31T11:18:26.865Z,0.80
2022-12-31T11:21:22.818Z,0.80
2022-12-31T11:24:25.711Z,0.68
2022-12-31T11:27:15.824Z,0.77
2022-12-31T11:30:01.641Z,0.55
2022-12-31T11:32:53.654Z,0.63
2022-12-31T11:35:41.887Z,0.60
2022-12-31T11:38:18.383Z,0.50
2022-12-31T11:41:03.959Z,0.38
2022-12-31T11:43:31.386Z,0.40
2022-12-31T11:46:20.321Z,0.30
2022-12-31T11:49:09.540Z,0.45
2022-12-31T11:51:59.974Z,0.30
2022-12-31T11:54:49.728Z,0.28
2022-12-31T11:57:37.828Z,0.60
2022-12-31T12:00:25.080Z,1.10
2022-12-31T12:02:58.803Z,1.13
2022-12-31T12:05:26.722Z,1.83
2022-12-31T12:07:54.998Z,1.52
2022-12-31T12:13:01.012Z,3.30
2022-12-31T12:15:34.939Z,3.47
2022-12-31T12:18:09.583Z,4.13
2022-12-31T12:20:38.788Z,4.40
2022-12-31T12:23:21.790Z,4.35
2022-12-31T12:25:49.267Z,4.55
2022-12-31T12:28:31.030Z,4.38
2022-12-31T12:31:01.987Z,3.72
2022-12-31T12:33:40.596Z,3.70
2022-12-31T12:36:14.437Z,3.65
2022-12-31T12:38:43.028Z,3.63
2022-12-31T12:41:18.766Z,2.65
2022-12-31T12:43:46.447Z,4.35
2022-12-31T12:46:31.058Z,3.90
2022-12-31T12:48:59.212Z,4.28
2022-12-31T12:52:02.438Z,4.70
2022-12-31T12:54:57.255Z,4.03
2022-12-31T12:57:39.756Z,4.00
2022-12-31T13:00:22.044Z,3.33
2022-12-31T13:03:12.862Z,4.28
2022-12-31T13:05:58.197Z,4.18
2022-12-31T13:08:48.546Z,3.80
2022-12-31T13:11:38.807Z,3.67
2022-12-31T13:14:23.379Z,4.32
2022-12-31T13:16:53.872Z,4.55
2022-12-31T13:19:42.244Z,5.00
2022-12-31T13:22:37.820Z,4.90
2022-12-31T13:25:24.028Z,4.50
2022-12-31T13:27:54.126Z,5.20
2022-12-31T13:30:23.805Z,5.32
2022-12-31T13:33:15.290Z,4.63
2022-12-31T13:35:48.597Z,4.68
2022-12-31T13:38:26.728Z,5.00
2022-12-31T13:40:57.280Z,4.57
2022-12-31T13:43:35.228Z,4.25
2022-12-31T13:46:30.963Z,5.28
2022-12-31T13:49:04.991Z,5.53
2022-12-31T13:51:50.227Z,4.68
2022-12-31T13:54:43.851Z,5.10
2022-12-31T13:57:39.224Z,4.47
2022-12-31T14:00:26.851Z,4.40
2022-12-31T14:03:16.763Z,5.22
2022-12-31T14:05:52.976Z,4.35
2022-12-31T14:08:20.559Z,4.38
2022-12-31T14:10:56.881Z,4.93
2022-12-31T14:14:02.007Z,5.05
2022-12-31T14:16:44.109Z,4.93
2022-12-31T14:19:26.023Z,4.90
2022-12-31T14:22:14.645Z,4.78
2022-12-31T14:24:46.248Z,5.07
2022-12-31T14:27:22.952Z,5.22
2022-12-31T14:29:58.907Z,5.75
2022-12-31T14:32:47.615Z,6.45
2022-12-31T14:35:32.320Z,6.35
2022-12-31T14:38:18.758Z,7.22
2022-12-31T14:41:05.800Z,6.82
2022-12-31T14:43:45.095Z,8.20
2022-12-31T14:46:18.560Z,8.65
2022-12-31T14:49:08.794Z,7.47
2022-12-31T14:51:37.417Z,7.57
2022-12-31T14:54:05.024Z,8.75
2022-12-31T14:56:42.712Z,8.52
2022-12-31T14:59:33.389Z,9.10
2022-12-31T15:02:31.642Z,9.27
2022-12-31T15:05:10.813Z,9.88
2022-12-31T15:07:48.066Z,8.88
2022-12-31T15:10:39.930Z,10.05
2022-12-31T15:13:15.339Z,9.55
2022-12-31T15:16:12.078Z,9.43
2022-12-31T15:18:54.644Z,9.32
2022-12-31T15:21:28.079Z,9.95
2022-12-31T15:23:57.020Z,9.98
2022-12-31T15:26:27.774Z,9.18
2022-12-31T15:29:05.121Z,10.05
2022-12-31T15:31:34.885Z,9.18
2022-12-31T15:34:23.057Z,9.90
2022-12-31T15:36:55.767Z,8.90
2022-12-31T15:39:32.234Z,9.45
2022-12-31T15:42:36.849Z,9.25
2022-12-31T15:44:59.153Z,9.00
2022-12-31T15:47:39.659Z,8.45
2022-12-31T15:50:15.903Z,9.40
2022-12-31T15:52:58.219Z,9.38
2022-12-31T15:55:49.331Z,9.18
2022-12-31T15:58:22.455Z,9.93
2022-12-31T16:01:01.466Z,9.50
2022-12-31T16:03:30.952Z,9.07
2022-12-31T16:06:08.161Z,8.45
2022-12-31T16:11:07.287Z,9.18
2022-12-31T16:13:40.515Z,9.02
2022-12-31T16:16:29.367Z,9.38
2022-12-31T16:18:57.990Z,9.00
2022-12-31T16:21:36.719Z,9.20
2022-12-31T16:24:29.710Z,9.20
2022-12-31T16:27:05.199Z,8.50
2022-12-31T16:29:41.503Z,8.55
2022-12-31T16:32:21.733Z,8.10
2022-12-31T16:34:49.446Z,7.15
2022-12-31T16:37:19.472Z,9.60
2022-12-31T16:39:59.023Z,8.60
2022-12-31T16:42:28.266Z,8.73
2022-12-31T16:44:57.295Z,8.43
2022-12-31T16:47:40.224Z,7.68
2022-12-31T16:50:20.316Z,8.55
2022-12-31T16:52:51.423Z,8.73
2022-12-31T16:55:26.027Z,8.65
2022-12-31T16:58:13.909Z,9.00
2022-12-31T17:00:42.930Z,8.90
2022-12-31T17:03:19.565Z,8.63
2022-12-31T17:06:12.352Z,8.77
2022-12-31T17:08:59.521Z,7.93
2022-12-31T17:11:33.053Z,9.30
2022-12-31T17:14:12.903Z,9.80
2022-12-31T17:17:02.597Z,8.52
2022-12-31T17:19:42.332Z,9.43
2022-12-31T17:22:32.957Z,7.50
2022-12-31T17:25:08.679Z,8.23
2022-12-31T17:27:36.921Z,8.85
2022-12-31T17:32:49.987Z,8.50
2022-12-31T17:35:29.849Z,8.10
2022-12-31T17:38:22.521Z,8.02
2022-12-31T17:41:14.002Z,8.43
2022-12-31T17:43:42.492Z,7.70
2022-12-31T17:46:17.374Z,8.50
2022-12-31T17:48:49.779Z,8.48
2022-12-31T17:51:18.896Z,7.90
2022-12-31T17:53:52.620Z,7.70
2022-12-31T17:56:20.520Z,7.78
2022-12-31T17:58:51.434Z,8.68
2022-12-31T18:01:22.617Z,8.95
2022-12-31T18:03:50.302Z,9.88
2022-12-31T18:06:19.587Z,10.50
2022-12-31T18:08:47.455Z,8.82
2022-12-31T18:11:23.151Z,9.02
2022-12-31T18:13:51.115Z,9.45
2022-12-31T18:16:18.663Z,9.80
2022-12-31T18:18:46.198Z,8.32
2022-12-31T18:21:26.998Z,8.90
2022-12-31T18:26:24.747Z,9.85
2022-12-31T18:28:52.716Z,10.15
2022-12-31T18:31:24.244Z,10.45
2022-12-31T18:33:53.452Z,7.32
2022-12-31T18:36:22.109Z,8.77
2022-12-31T18:38:49.646Z,10.30
2022-12-31T18:41:30.498Z,8.98
2022-12-31T18:44:18.293Z,9.48
2022-12-31T18:46:45.779Z,9.82
2022-12-31T18:49:13.188Z,10.80
2022-12-31T18:51:40.583Z,9.68
2022-12-31T18:54:11.149Z,9.47
2022-12-31T18:56:43.269Z,10.00
2022-12-31T18:59:14.101Z,10.35
2022-12-31T19:01:41.743Z,10.77
2022-12-31T19:04:26.966Z,9.27
2022-12-31T19:06:55.270Z,10.18
2022-12-31T19:09:44.492Z,10.55
2022-12-31T19:12:16.409Z,9.77
2022-12-31T19:14:45.448Z,10.00
2022-12-31T19:17:12.929Z,9.40
2022-12-31T19:19:40.444Z,10.15
2022-12-31T19:22:14.657Z,9.43
2022-12-31T19:24:45.198Z,9.00
2022-12-31T19:27:12.986Z,10.15
2022-12-31T19:29:40.572Z,9.65
2022-12-31T19:32:08.187Z,8.70
2022-12-31T19:34:35.719Z,9.38
2022-12-31T19:37:03.304Z,7.93
2022-12-31T19:39:30.764Z,8.13
2022-12-31T19:41:59.339Z,9.02
2022-12-31T19:44:27.213Z,8.93
2022-12-31T19:46:54.724Z,8.98
2022-12-31T19:49:22.251Z,8.25
2022-12-31T19:51:49.797Z,8.48
2022-12-31T19:54:17.452Z,8.77
2022-12-31T19:56:44.853Z,8.95
2022-12-31T19:59:12.245Z,8.50
2022-12-31T20:01:39.868Z,9.43
2022-12-31T20:04:07.381Z,9.57
2022-12-31T20:06:34.803Z,9.18
2022-12-31T20:09:03.278Z,8.98
2022-12-31T20:11:30.791Z,8.52
2022-12-31T20:13:58.354Z,8.10
2022-12-31T20:16:31.740Z,7.82
2022-12-31T20:18:59.466Z,7.72
2022-12-31T20:21:28.733Z,8.35
2022-12-31T20:23:57.502Z,8.80
2022-12-31T20:26:25.941Z,8.18
2022-12-31T20:28:53.720Z,8.13
2022-12-31T20:31:25.133Z,8.10
2022-12-31T20:33:56.899Z,8.05
2022-12-31T20:36:25.744Z,7.40
2022-12-31T20:38:53.203Z,7.70
2022-12-31T20:41:22.469Z,8.05
2022-12-31T20:43:50.431Z,8.20
2022-12-31T20:46:23.517Z,8.05
2022-12-31T20:48:54.977Z,7.75
2022-12-31T20:51:23.445Z,7.10
2022-12-31T20:53:57.397Z,7.45
2022-12-31T20:56:26.737Z,7.85
2022-12-31T20:58:54.381Z,7.80
2022-12-31T21:01:22.485Z,7.50
2022-12-31T21:04:05.061Z,7.63
2022-12-31T21:06:34.722Z,7.10
2022-12-31T21:09:03.872Z,6.35
2022-12-31T21:11:50.423Z,7.13
2022-12-31T21:14:18.049Z,7.22
2022-12-31T21:16:45.584Z,7.50
2022-12-31T21:19:13.024Z,6.28
2022-12-31T21:21:40.483Z,5.75
2022-12-31T21:24:08.433Z,5.57
2022-12-31T21:26:36.019Z,5.40
2022-12-31T21:29:03.688Z,5.55
2022-12-31T21:31:31.446Z,5.15
2022-12-31T21:33:59.150Z,5.22
2022-12-31T21:36:26.595Z,5.72
2022-12-31T21:38:54.284Z,5.88
2022-12-31T21:41:40.500Z,6.05
2022-12-31T21:44:08.089Z,6.38
2022-12-31T21:46:35.717Z,5.18
2022-12-31T21:49:04.103Z,4.05
2022-12-31T21:51:31.712Z,5.00
2022-12-31T21:53:59.210Z,5.15
2022-12-31T21:56:26.740Z,5.30
2022-12-31T21:59:15.700Z,4.78
2022-12-31T22:02:02.313Z,4.50
2022-12-31T22:07:17.626Z,3.90
2022-12-31T22:09:45.113Z,4.13
2022-12-31T22:12:12.526Z,4.18
2022-12-31T22:14:39.928Z,5.47
2022-12-31T22:17:27.360Z,3.80
2022-12-31T22:22:44.132Z,3.90
2022-12-31T22:25:13.610Z,4.50
2022-12-31T22:27:53.047Z,3.67
2022-12-31T22:30:35.714Z,3.97
2022-12-31T22:33:03.329Z,4.00
2022-12-31T22:35:34.021Z,3.45
2022-12-31T22:38:06.649Z,3.90
2022-12-31T22:40:39.291Z,4.20
2022-12-31T22:43:06.757Z,3.05
2022-12-31T22:45:34.253Z,2.75
2022-12-31T22:48:01.747Z,3.05
2022-12-31T22:50:29.208Z,2.95
2022-12-31T22:52:56.654Z,3.20
2022-12-31T22:55:24.073Z,3.00
2022-12-31T22:57:51.555Z,2.33
2022-12-31T23:00:18.965Z,2.33
2022-12-31T23:02:46.558Z,2.65
2022-12-31T23:05:15.868Z,2.50
2022-12-31T23:07:43.913Z,2.42
2022-12-31T23:10:29.895Z,2.38
2022-12-31T23:12:58.820Z,2.90
2022-12-31T23:15:44.723Z,2.38
2022-12-31T23:18:30.869Z,2.35
2022-12-31T23:21:17.152Z,2.45
2022-12-31T23:23:44.550Z,2.63
2022-12-31T23:26:11.999Z,2.57
2022-12-31T23:28:41.780Z,2.65
2022-12-31T23:31:09.317Z,2.63
2022-12-31T23:33:36.851Z,2.80
2022-12-31T23:36:06.117Z,2.53
2022-12-31T23:38:33.626Z,1.95
2022-12-31T23:41:01.214Z,2.63
2022-12-31T23:43:28.692Z,2.60
2022-12-31T23:45:56.105Z,2.05
2022-12-31T23:48:23.507Z,2.75
2022-12-31T23:50:53.817Z,2.37
2022-12-31T23:53:23.349Z,2.28
2022-12-31T23:55:51.783Z,2.45
2022-12-31T23:58:19.534Z,2.60
